Time;durP1;ratioP1;P1;durP2;ratioP2;P2;SDS_P1;SDS_P2;PMS_P1;PMS_P2;Temp;Humidity;BMP_temperature;BMP_pressure;BME280_temperature;BME280_humidity;BME280_pressure;Samples;Min_cycle;Max_cycle;Signal;HPM_P1;HPM_P2
2021/03/17 19:05:18;;;;;;;5.38;3.72;;;2.80;99.90;;;;;;5037679;27;20734;-65
2021/03/17 19:07:45;;;;;;;4.32;3.92;;;2.80;99.90;;;;;;5038686;28;20205;-64
2021/03/17 19:10:13;;;;;;;5.32;4.10;;;2.80;99.90;;;;;;5034680;28;64842;-64
2021/03/17 19:12:40;;;;;;;3.15;2.95;;;2.70;99.90;;;;;;5031870;28;20248;-64
2021/03/17 19:15:09;;;;;;;3.88;3.58;;;2.70;99.90;;;;;;5031191;28;20241;-65
2021/03/17 19:17:35;;;;;;;4.43;3.47;;;2.60;99.90;;;;;;5039358;28;20216;-64
2021/03/17 19:20:02;;;;;;;4.68;4.25;;;2.60;99.90;;;;;;5030200;28;20202;-64
2021/03/17 19:22:30;;;;;;;3.80;3.47;;;2.60;99.90;;;;;;5029089;28;20206;-64
2021/03/17 19:24:56;;;;;;;4.50;4.10;;;2.50;99.90;;;;;;5031472;28;20328;-64
2021/03/17 19:27:22;;;;;;;3.58;3.38;;;2.60;99.90;;;;;;5029792;28;20209;-64
2021/03/17 19:29:49;;;;;;;3.97;3.60;;;2.50;99.90;;;;;;5032771;28;20205;-64
2021/03/17 19:32:15;;;;;;;4.03;3.47;;;2.50;99.90;;;;;;5027846;28;20203;-64
2021/03/17 19:34:42;;;;;;;6.53;3.78;;;2.40;99.90;;;;;;5027641;28;20209;-64
2021/03/17 19:37:08;;;;;;;5.10;3.85;;;2.30;99.90;;;;;;5035763;28;20233;-64
2021/03/17 19:39:36;;;;;;;4.68;3.83;;;2.40;99.90;;;;;;5025796;28;20209;-64
2021/03/17 19:42:04;;;;;;;4.80;4.20;;;2.30;99.90;;;;;;5030447;28;20202;-64
2021/03/17 19:44:30;;;;;;;4.63;3.55;;;2.20;99.90;;;;;;5031068;28;20234;-64
2021/03/17 19:46:57;;;;;;;4.30;3.85;;;2.10;99.90;;;;;;5028518;28;20652;-64
2021/03/17 19:49:23;;;;;;;3.85;3.20;;;2.10;99.90;;;;;;5035975;28;20297;-64
2021/03/17 19:51:50;;;;;;;4.22;3.40;;;2.00;99.90;;;;;;5034546;28;20708;-64
2021/03/17 19:54:16;;;;;;;4.28;3.88;;;2.00;99.90;;;;;;5038066;28;20609;-64
2021/03/17 19:56:43;;;;;;;3.88;3.45;;;2.00;99.90;;;;;;5023509;28;20218;-64
2021/03/17 19:59:10;;;;;;;4.57;4.13;;;2.00;99.90;;;;;;5029629;28;20210;-64
2021/03/17 20:01:37;;;;;;;4.05;3.65;;;1.90;99.90;;;;;;5039947;28;20292;-64
2021/03/17 20:04:04;;;;;;;5.85;3.45;;;1.90;99.90;;;;;;5023981;28;20343;-64
2021/03/17 20:06:31;;;;;;;4.53;4.13;;;2.00;99.90;;;;;;5030937;28;20218;-64
2021/03/17 20:08:57;;;;;;;4.60;4.13;;;2.00;99.90;;;;;;5031680;28;20241;-64
2021/03/17 20:11:23;;;;;;;5.60;4.72;;;2.10;99.90;;;;;;5035022;28;20926;-64
2021/03/17 20:13:51;;;;;;;4.80;4.40;;;2.10;99.90;;;;;;5038208;28;20213;-64
2021/03/17 20:16:17;;;;;;;4.68;4.07;;;2.00;99.90;;;;;;5018380;28;20214;-64
2021/03/17 20:18:43;;;;;;;5.70;4.18;;;2.00;99.90;;;;;;5013444;28;20199;-64
2021/03/17 20:21:10;;;;;;;6.82;5.10;;;2.00;99.90;;;;;;5015346;28;20305;-63
2021/03/17 20:23:37;;;;;;;8.60;5.85;;;2.00;99.90;;;;;;5020958;28;20236;-64
2021/03/17 20:26:03;;;;;;;5.72;5.13;;;2.10;99.90;;;;;;5015630;28;20199;-64
2021/03/17 20:28:30;;;;;;;8.38;6.88;;;2.10;99.90;;;;;;5016189;28;20205;-64
2021/03/17 20:30:58;;;;;;;7.45;6.70;;;2.10;99.90;;;;;;5020087;28;20210;-64
2021/03/17 20:33:28;;;;;;;8.05;6.25;;;2.10;99.90;;;;;;5017958;28;20207;-64
2021/03/17 20:35:56;;;;;;;6.95;5.43;;;2.10;99.90;;;;;;5019285;28;20207;-64
2021/03/17 20:38:22;;;;;;;6.32;5.72;;;2.10;99.90;;;;;;5018747;28;20577;-65
2021/03/17 20:40:50;;;;;;;8.15;6.00;;;2.10;99.90;;;;;;5016869;28;20217;-65
2021/03/17 20:43:17;;;;;;;8.27;6.38;;;2.10;99.90;;;;;;5014277;28;20203;-65
2021/03/17 20:45:44;;;;;;;7.65;6.85;;;2.10;99.90;;;;;;5017880;28;20226;-65
2021/03/17 20:48:12;;;;;;;7.78;6.97;;;2.10;99.90;;;;;;5020668;28;20229;-64
2021/03/17 20:50:39;;;;;;;7.38;6.55;;;2.10;99.90;;;;;;5027901;28;20670;-65
2021/03/17 20:53:08;;;;;;;8.23;7.38;;;2.10;99.90;;;;;;5021228;28;20242;-64
2021/03/17 20:55:36;;;;;;;8.10;7.30;;;2.10;99.90;;;;;;5010557;28;20718;-65
2021/03/17 20:58:04;;;;;;;7.93;7.03;;;2.10;99.90;;;;;;5020405;28;20290;-64
2021/03/17 21:00:33;;;;;;;8.38;6.57;;;2.10;99.90;;;;;;5018784;28;20330;-65
2021/03/17 21:03:00;;;;;;;9.00;6.82;;;2.10;99.90;;;;;;5017774;28;20209;-65
2021/03/17 21:05:28;;;;;;;7.70;6.60;;;2.00;99.90;;;;;;5015887;28;20875;-65
2021/03/17 21:07:55;;;;;;;7.60;6.85;;;2.00;99.90;;;;;;5014459;28;20194;-65
2021/03/17 21:10:24;;;;;;;9.25;7.28;;;2.00;99.90;;;;;;5020778;28;20293;-66
2021/03/17 21:12:51;;;;;;;8.25;6.53;;;2.00;99.90;;;;;;5014306;28;20237;-65
2021/03/17 21:15:18;;;;;;;6.82;6.22;;;2.00;99.90;;;;;;5021760;28;20321;-65
2021/03/17 21:17:45;;;;;;;7.00;6.40;;;2.00;99.90;;;;;;5020871;28;20210;-64
2021/03/17 21:20:15;;;;;;;7.18;6.45;;;2.10;99.90;;;;;;5024956;28;20582;-64
2021/03/17 21:22:43;;;;;;;7.82;6.85;;;2.00;99.90;;;;;;5022732;28;20211;-63
2021/03/17 21:25:12;;;;;;;7.85;7.15;;;2.00;99.90;;;;;;5022512;28;20238;-64
2021/03/17 21:27:38;;;;;;;6.75;5.97;;;2.10;99.90;;;;;;5017843;28;20218;-64
2021/03/17 21:30:08;;;;;;;9.02;6.95;;;2.10;99.90;;;;;;5024491;28;20290;-64
2021/03/17 21:32:34;;;;;;;9.93;7.22;;;2.10;99.90;;;;;;5022699;28;20607;-64
2021/03/17 21:35:01;;;;;;;9.55;6.93;;;2.10;99.90;;;;;;5016318;28;20202;-64
2021/03/17 21:37:27;;;;;;;7.70;6.90;;;2.10;99.90;;;;;;5018389;28;20210;-64
2021/03/17 21:39:55;;;;;;;9.65;7.03;;;2.10;99.90;;;;;;5023478;28;20209;-65
2021/03/17 21:42:21;;;;;;;8.90;6.43;;;2.20;99.90;;;;;;5010358;28;20203;-66
2021/03/17 21:44:48;;;;;;;8.10;7.30;;;2.20;99.90;;;;;;5015409;28;20234;-66
2021/03/17 21:47:14;;;;;;;6.90;6.20;;;2.20;99.90;;;;;;5013691;28;20754;-66
2021/03/17 21:49:41;;;;;;;6.93;6.22;;;2.20;99.90;;;;;;5017586;28;20696;-66
2021/03/17 21:52:07;;;;;;;7.15;6.43;;;2.30;99.90;;;;;;5021417;28;20284;-64
2021/03/17 21:54:33;;;;;;;7.05;6.05;;;2.30;99.90;;;;;;5017634;28;20742;-64
2021/03/17 21:57:01;;;;;;;7.03;6.43;;;2.30;99.90;;;;;;5018290;28;20257;-65
2021/03/17 21:59:27;;;;;;;8.07;7.22;;;2.20;99.90;;;;;;5014007;28;20203;-65
2021/03/17 22:01:53;;;;;;;7.35;6.38;;;2.20;99.90;;;;;;5021723;28;20203;-65
2021/03/17 22:04:20;;;;;;;7.40;6.70;;;2.30;99.90;;;;;;5018048;28;20238;-64
2021/03/17 22:06:46;;;;;;;7.40;6.60;;;2.30;99.90;;;;;;5017046;28;20284;-65
2021/03/17 22:09:12;;;;;;;6.05;5.38;;;2.20;99.90;;;;;;5016601;28;20644;-64
2021/03/17 22:11:39;;;;;;;7.05;6.45;;;2.10;99.90;;;;;;5025498;28;20206;-65
2021/03/17 22:14:06;;;;;;;9.02;6.65;;;2.10;99.90;;;;;;5014035;28;20209;-65
2021/03/17 22:16:32;;;;;;;7.20;6.50;;;2.00;99.90;;;;;;5015945;28;20214;-65
2021/03/17 22:18:59;;;;;;;7.85;6.50;;;2.00;99.90;;;;;;5018236;28;20211;-65
2021/03/17 22:21:25;;;;;;;6.78;6.07;;;1.90;99.90;;;;;;5012539;28;20207;-65
2021/03/17 22:23:51;;;;;;;7.32;6.28;;;1.90;99.90;;;;;;5013096;28;21257;-65
2021/03/17 22:26:18;;;;;;;7.32;6.55;;;1.80;99.90;;;;;;5018169;28;20210;-65
2021/03/17 22:28:44;;;;;;;7.20;5.57;;;1.80;99.90;;;;;;5015753;28;20207;-65
2021/03/17 22:31:11;;;;;;;7.45;5.97;;;1.80;99.90;;;;;;5018805;28;20256;-65
2021/03/17 22:33:38;;;;;;;8.23;6.30;;;1.60;99.90;;;;;;5017444;28;20259;-65
2021/03/17 22:36:05;;;;;;;7.93;7.10;;;1.60;99.90;;;;;;5013325;28;20202;-65
2021/03/17 22:38:31;;;;;;;7.25;6.50;;;1.50;99.90;;;;;;5019541;28;20545;-65
2021/03/17 22:40:59;;;;;;;9.00;7.38;;;1.40;99.90;;;;;;5018899;28;20211;-65
2021/03/17 22:43:26;;;;;;;7.80;7.00;;;1.30;99.90;;;;;;5010872;28;20211;-64
2021/03/17 22:45:52;;;;;;;8.88;7.78;;;1.20;99.90;;;;;;5012320;28;20202;-65
2021/03/17 22:48:20;;;;;;;8.82;7.22;;;1.10;99.90;;;;;;5021324;28;21193;-65
2021/03/17 22:50:51;;;;;;;8.07;7.28;;;1.00;99.90;;;;;;5013783;28;20210;-65
2021/03/17 22:53:17;;;;;;;8.48;7.53;;;0.90;99.90;;;;;;5016760;28;20264;-65
2021/03/17 22:55:44;;;;;;;8.60;7.15;;;0.90;99.90;;;;;;5025476;28;20729;-64
2021/03/17 22:58:10;;;;;;;8.15;7.00;;;0.90;99.90;;;;;;5017235;28;20652;-65
2021/03/17 23:00:39;;;;;;;9.65;7.55;;;0.90;99.90;;;;;;5016530;28;20195;-65
2021/03/17 23:03:06;;;;;;;12.98;7.95;;;0.90;99.90;;;;;;5019306;28;20218;-65
2021/03/17 23:05:35;;;;;;;8.30;7.30;;;0.90;99.90;;;;;;5015911;28;20317;-66
2021/03/17 23:08:04;;;;;;;10.45;8.05;;;1.00;99.90;;;;;;5021576;28;20225;-64
2021/03/17 23:10:34;;;;;;;9.30;7.07;;;1.10;99.90;;;;;;5023387;28;20553;-65
2021/03/17 23:13:00;;;;;;;8.88;7.95;;;1.20;99.90;;;;;;5010932;28;20202;-64
2021/03/17 23:15:29;;;;;;;13.57;8.95;;;1.30;99.90;;;;;;5016706;28;20731;-64
2021/03/17 23:17:57;;;;;;;10.68;9.55;;;1.40;99.90;;;;;;5017410;28;20199;-66
2021/03/17 23:20:24;;;;;;;13.32;10.02;;;1.40;99.90;;;;;;5013385;28;20220;-64
2021/03/17 23:22:52;;;;;;;12.60;9.75;;;1.40;99.90;;;;;;5015283;28;20337;-64
2021/03/17 23:25:26;;;;;;;14.63;10.23;;;1.50;99.90;;;;;;5019825;28;20235;-65
2021/03/17 23:27:55;;;;;;;10.93;9.75;;;1.50;99.90;;;;;;5015514;28;20217;-65
2021/03/17 23:30:24;;;;;;;13.77;11.45;;;1.40;99.90;;;;;;5010789;28;20212;-65
2021/03/17 23:32:51;;;;;;;13.20;11.80;;;1.50;99.90;;;;;;5022842;28;20296;-65
2021/03/17 23:35:21;;;;;;;12.98;10.57;;;1.50;99.90;;;;;;5020757;28;20298;-65
2021/03/17 23:37:50;;;;;;;16.33;11.50;;;1.40;99.90;;;;;;5017324;28;20209;-65
2021/03/17 23:40:24;;;;;;;14.55;12.48;;;1.40;99.90;;;;;;5020230;28;20210;-65
2021/03/17 23:42:51;;;;;;;14.20;12.70;;;1.40;99.90;;;;;;5018358;28;20208;-65
2021/03/17 23:45:19;;;;;;;16.92;12.10;;;1.40;99.90;;;;;;5021170;28;20368;-65
2021/03/17 23:47:46;;;;;;;13.00;11.70;;;1.40;99.90;;;;;;5017550;28;20246;-64
2021/03/17 23:50:21;;;;;;;12.38;11.07;;;1.50;99.90;;;;;;5016634;28;20210;-64
2021/03/17 23:52:48;;;;;;;12.15;10.82;;;1.50;99.90;;;;;;5015375;28;20209;-64
2021/03/17 23:55:17;;;;;;;12.88;11.43;;;1.60;99.90;;;;;;5016977;28;20209;-64
2021/03/17 23:57:44;;;;;;;14.45;11.13;;;1.60;99.90;;;;;;5020412;28;20301;-64
